Date,TemperatureHighF,TemperatureAvgF,TemperatureLowF,DewpointHighF,DewpointAvgF,DewpointLowF,HumidityHigh,HumidityAvg,HumidityLow,PressureMaxIn,PressureMinIn,WindSpeedMaxMPH,WindSpeedAvgMPH,GustSpeedMaxMPH,PrecipitationSumIn
2013-3-1,46,41,36,31,29,27,77,64,49,29.81,29.66,13,8,20,0.14
2013-3-2,39,38,37,26,24,24,60,57,56,29.81,29.81,7,5,10,0.00
2013-3-3,37,36,33,20,15,11,55,44,39,29.84,29.75,18,15,22,0.00
2013-3-4,40,35,31,21,17,12,55,47,39,30.13,29.84,22,16,28,0.00
2013-3-5,44,36,31,29,22,17,78,57,39,30.07,29.90,16,8,21,0.00
2013-3-6,41,38,34,39,35,28,98,89,65,29.90,29.48,29,18,38,1.15
2013-3-7,47,40,34,33,28,24,97,63,44,30.07,29.84,17,12,23,1.15
2013-3-8,40,37,32,31,27,20,82,69,50,30.19,30.01,18,12,23,0.03
2013-3-9,53,40,29,28,24,21,81,54,39,30.31,30.16,13,6,17,0.03
2013-3-10,49,37,25,38,30,22,96,75,55,30.37,30.31,10,3,16,0.00
2013-3-11,59,46,12,51,41,6,100,84,57,30.31,30.04,15,6,18,0.00
2013-3-12,54,50,44,53,46,34,100,84,66,30.07,29.72,21,12,26,0.21
2013-3-13,50,43,34,32,27,18,79,53,39,29.99,29.87,15,8,25,0.21
2013-3-14,44,38,33,20,16,11,49,40,39,30.04,29.95,21,16,28,0.21
2013-3-15,52,42,32,28,20,10,67,43,39,30.07,29.81,17,8,25,0.00
2013-3-16,50,41,32,31,29,25,80,62,40,29.90,29.69,13,6,16,0.00
2013-3-17,43,38,34,30,22,13,76,53,39,30.28,29.90,9,4,15,0.00
2013-3-18,46,39,34,46,27,11,100,64,39,30.34,29.87,14,7,21,0.44
2013-3-19,52,44,38,47,39,27,100,87,47,29.87,29.72,14,5,20,0.09
2013-3-20,50,42,34,29,23,16,64,48,39,29.99,29.81,16,8,21,0.09
2013-3-21,39,35,31,27,16,8,67,46,39,29.84,29.69,20,12,27,0.04
2013-3-22,46,37,30,22,16,8,54,43,39,29.95,29.84,18,13,27,0.04
2013-3-23,47,38,32,27,20,16,60,48,39,29.99,29.90,16,10,21,0.00
2013-3-24,49,38,26,26,21,18,77,52,39,29.99,29.66,8,2,10,0.00
2013-3-25,38,35,32,36,33,26,99,92,65,29.69,29.39,14,9,18,0.72
2013-3-26,52,41,35,35,31,27,97,69,39,29.93,29.63,14,7,21,0.72
2013-3-27,50,44,36,32,28,24,80,55,39,30.04,29.93,15,9,21,0.00
2013-3-28,50,43,38,30,27,25,64,54,39,30.16,30.04,16,10,23,0.00
2013-3-29,55,45,37,31,28,26,69,53,39,30.22,30.10,13,6,16,0.11
2013-3-30,57,44,31,37,29,26,88,56,39,30.22,30.13,9,3,12,0.11
2013-3-31,57,46,35,50,40,31,100,81,45,30.16,29.72,18,6,21,0.13